Terminal Aerodrome Forecast
Issued by NWS Atlanta, GA

Home | Current Version | Previous Version | Text Only | Print | Product List | Glossary On
Versions: 1 2 3 4 5 6 7 8 9 10 11 12 13 14 15 16 17 18 19 20 21 22 23 24 25 26 27 28 29 30 31 32 33 34 35 36 37 38 39 40 41 42 43 44 45
000
FTUS42 KFFC 301600 AAA
TAFAHN
TAF AMD
KAHN 301620Z 3016/0112 04003KT 6SM BR SCT015
      TEMPO 3016/3018 BKN015
     FM301800 04003KT P6SM FEW040
     FM302200 VRB03KT P6SM FEW100
     FM011000 00000KT 3SM BR FEW250=

USA.gov is the U.S. government's official web portal to all federal, state and local government web resources and services.